sensor_id;sensor_type;location;lat;lon;timestamp;pressure;altitude;pressure_sealevel;temperature
34901;BMP280;21112;51.976;5.660;2023-12-20T00:01:48;100427.78;;;5.87
34901;BMP280;21112;51.976;5.660;2023-12-20T00:04:15;100424.44;;;5.91
34901;BMP280;21112;51.976;5.660;2023-12-20T00:06:43;100432.72;;;5.93
34901;BMP280;21112;51.976;5.660;2023-12-20T00:09:09;100434.31;;;5.98
34901;BMP280;21112;51.976;5.660;2023-12-20T00:11:36;100439.34;;;5.97
34901;BMP280;21112;51.976;5.660;2023-12-20T00:14:03;100427.72;;;5.96
34901;BMP280;21112;51.976;5.660;2023-12-20T00:16:29;100432.72;;;5.93
34901;BMP280;21112;51.976;5.660;2023-12-20T00:18:57;100424.44;;;5.88
34901;BMP280;21112;51.976;5.660;2023-12-20T00:21:23;100425.31;;;5.84
34901;BMP280;21112;51.976;5.660;2023-12-20T00:23:51;100421.19;;;5.77
34901;BMP280;21112;51.976;5.660;2023-12-20T00:26:18;100421.25;;;5.69
34901;BMP280;21112;51.976;5.660;2023-12-20T00:28:45;100427.97;;;5.63
34901;BMP280;21112;51.976;5.660;2023-12-20T00:31:29;100423.88;;;5.56
34901;BMP280;21112;51.976;5.660;2023-12-20T00:33:56;100428.03;;;5.49
34901;BMP280;21112;51.976;5.660;2023-12-20T00:36:22;100425.59;;;5.43
34901;BMP280;21112;51.976;5.660;2023-12-20T00:38:49;100422.31;;;5.37
34901;BMP280;21112;51.976;5.660;2023-12-20T00:41:18;100433.94;;;5.38
34901;BMP280;21112;51.976;5.660;2023-12-20T00:43:44;100432.31;;;5.32
34901;BMP280;21112;51.976;5.660;2023-12-20T00:46:11;100437.34;;;5.23
34901;BMP280;21112;51.976;5.660;2023-12-20T00:48:38;100440.69;;;5.18
34901;BMP280;21112;51.976;5.660;2023-12-20T00:51:07;100440.72;;;5.10
34901;BMP280;21112;51.976;5.660;2023-12-20T00:53:33;100439.91;;;5.07
34901;BMP280;21112;51.976;5.660;2023-12-20T00:56:00;100432.47;;;5.02
34901;BMP280;21112;51.976;5.660;2023-12-20T00:58:28;100435.81;;;5.00
34901;BMP280;21112;51.976;5.660;2023-12-20T01:00:55;100441.63;;;5.02
34901;BMP280;21112;51.976;5.660;2023-12-20T01:03:21;100441.63;;;5.00
34901;BMP280;21112;51.976;5.660;2023-12-20T01:05:48;100444.13;;;4.97
34901;BMP280;21112;51.976;5.660;2023-12-20T01:08:15;100439.13;;;5.02
34901;BMP280;21112;51.976;5.660;2023-12-20T01:10:42;100434.97;;;5.01
34901;BMP280;21112;51.976;5.660;2023-12-20T01:13:08;100429.19;;;5.00
34901;BMP280;21112;51.976;5.660;2023-12-20T01:15:38;100430.84;;;4.98
34901;BMP280;21112;51.976;5.660;2023-12-20T01:18:06;100431.66;;;4.99
34901;BMP280;21112;51.976;5.660;2023-12-20T01:20:33;100429.19;;;4.99
34901;BMP280;21112;51.976;5.660;2023-12-20T01:23:00;100430.00;;;5.02
34901;BMP280;21112;51.976;5.660;2023-12-20T01:25:27;100420.06;;;4.98
34901;BMP280;21112;51.976;5.660;2023-12-20T01:27:56;100424.25;;;4.92
34901;BMP280;21112;51.976;5.660;2023-12-20T01:30:23;100431.72;;;4.87
34901;BMP280;21112;51.976;5.660;2023-12-20T01:32:51;100431.72;;;4.87
34901;BMP280;21112;51.976;5.660;2023-12-20T01:35:18;100426.75;;;4.90
34901;BMP280;21112;51.976;5.660;2023-12-20T01:37:44;100427.56;;;4.90
34901;BMP280;21112;51.976;5.660;2023-12-20T01:40:17;100431.72;;;4.90
34901;BMP280;21112;51.976;5.660;2023-12-20T01:42:44;100433.41;;;4.88
34901;BMP280;21112;51.976;5.660;2023-12-20T01:45:11;100437.50;;;4.93
34901;BMP280;21112;51.976;5.660;2023-12-20T01:47:38;100438.31;;;4.94
34901;BMP280;21112;51.976;5.660;2023-12-20T01:50:07;100435.03;;;4.92
34901;BMP280;21112;51.976;5.660;2023-12-20T01:52:36;100440.03;;;4.88
34901;BMP280;21112;51.976;5.660;2023-12-20T01:55:04;100438.34;;;4.91
34901;BMP280;21112;51.976;5.660;2023-12-20T01:57:38;100433.41;;;4.88
34901;BMP280;21112;51.976;5.660;2023-12-20T02:00:07;100430.84;;;4.94
34901;BMP280;21112;51.976;5.660;2023-12-20T02:02:35;100433.34;;;4.97
34901;BMP280;21112;51.976;5.660;2023-12-20T02:05:03;100437.47;;;5.01
34901;BMP280;21112;51.976;5.660;2023-12-20T02:07:31;100427.50;;;5.05
34901;BMP280;21112;51.976;5.660;2023-12-20T02:10:05;100434.91;;;5.16
34901;BMP280;21112;51.976;5.660;2023-12-20T02:12:34;100434.81;;;5.29
34901;BMP280;21112;51.976;5.660;2023-12-20T02:15:01;100444.78;;;5.31
34901;BMP280;21112;51.976;5.660;2023-12-20T02:17:27;100443.94;;;5.30
34901;BMP280;21112;51.976;5.660;2023-12-20T02:19:54;100440.63;;;5.30
34901;BMP280;21112;51.976;5.660;2023-12-20T02:22:23;100437.31;;;5.29
34901;BMP280;21112;51.976;5.660;2023-12-20T02:24:49;100438.16;;;5.30
34901;BMP280;21112;51.976;5.660;2023-12-20T02:27:17;100431.44;;;5.35
34901;BMP280;21112;51.976;5.660;2023-12-20T02:29:47;100428.13;;;5.42
34901;BMP280;21112;51.976;5.660;2023-12-20T02:32:13;100426.44;;;5.44
34901;BMP280;21112;51.976;5.660;2023-12-20T02:34:40;100423.09;;;5.45
34901;BMP280;21112;51.976;5.660;2023-12-20T02:37:07;100421.44;;;5.41
34901;BMP280;21112;51.976;5.660;2023-12-20T02:39:35;100417.31;;;5.41
34901;BMP280;21112;51.976;5.660;2023-12-20T02:42:03;100411.47;;;5.44
34901;BMP280;21112;51.976;5.660;2023-12-20T02:44:30;100402.31;;;5.47
34901;BMP280;21112;51.976;5.660;2023-12-20T02:46:57;100417.22;;;5.52
34901;BMP280;21112;51.976;5.660;2023-12-20T02:49:23;100398.94;;;5.53
34901;BMP280;21112;51.976;5.660;2023-12-20T02:51:50;100411.41;;;5.51
34901;BMP280;21112;51.976;5.660;2023-12-20T02:54:17;100408.16;;;5.45
34901;BMP280;21112;51.976;5.660;2023-12-20T02:56:45;100408.19;;;5.39
34901;BMP280;21112;51.976;5.660;2023-12-20T02:59:11;100406.56;;;5.32
34901;BMP280;21112;51.976;5.660;2023-12-20T03:01:42;100410.75;;;5.28
34901;BMP280;21112;51.976;5.660;2023-12-20T03:04:08;100407.50;;;5.22
34901;BMP280;21112;51.976;5.660;2023-12-20T03:06:35;100405.00;;;5.20
34901;BMP280;21112;51.976;5.660;2023-12-20T03:09:02;100405.03;;;5.16
34901;BMP280;21112;51.976;5.660;2023-12-20T03:11:28;100390.91;;;5.16
34901;BMP280;21112;51.976;5.660;2023-12-20T03:13:57;100394.22;;;5.18
34901;BMP280;21112;51.976;5.660;2023-12-20T03:16:24;100385.88;;;5.21
34901;BMP280;21112;51.976;5.660;2023-12-20T03:18:53;100386.69;;;5.29
34901;BMP280;21112;51.976;5.660;2023-12-20T03:21:20;100384.97;;;5.34
34901;BMP280;21112;51.976;5.660;2023-12-20T03:23:46;100380.88;;;5.30
34901;BMP280;21112;51.976;5.660;2023-12-20T03:26:13;100383.31;;;5.34
34901;BMP280;21112;51.976;5.660;2023-12-20T03:28:40;100384.97;;;5.37
34901;BMP280;21112;51.976;5.660;2023-12-20T03:31:09;100379.09;;;5.44
34901;BMP280;21112;51.976;5.660;2023-12-20T03:33:36;100384.03;;;5.47
34901;BMP280;21112;51.976;5.660;2023-12-20T03:36:02;100374.09;;;5.45
34901;BMP280;21112;51.976;5.660;2023-12-20T03:38:29;100381.59;;;5.42
34901;BMP280;21112;51.976;5.660;2023-12-20T03:40:56;100379.94;;;5.43
34901;BMP280;21112;51.976;5.660;2023-12-20T03:43:22;100374.13;;;5.44
34901;BMP280;21112;51.976;5.660;2023-12-20T03:45:49;100373.28;;;5.45
34901;BMP280;21112;51.976;5.660;2023-12-20T03:48:17;100376.56;;;5.47
34901;BMP280;21112;51.976;5.660;2023-12-20T03:50:44;100368.28;;;5.46
34901;BMP280;21112;51.976;5.660;2023-12-20T03:53:10;100376.56;;;5.48
34901;BMP280;21112;51.976;5.660;2023-12-20T03:55:37;100373.22;;;5.49
34901;BMP280;21112;51.976;5.660;2023-12-20T03:58:04;100363.22;;;5.57
34901;BMP280;21112;51.976;5.660;2023-12-20T04:00:30;100363.19;;;5.58
34901;BMP280;21112;51.976;5.660;2023-12-20T04:02:57;100366.50;;;5.59
34901;BMP280;21112;51.976;5.660;2023-12-20T04:05:25;100369.03;;;5.54
34901;BMP280;21112;51.976;5.660;2023-12-20T04:07:52;100369.84;;;5.55
34901;BMP280;21112;51.976;5.660;2023-12-20T04:10:18;100367.31;;;5.64
34901;BMP280;21112;51.976;5.660;2023-12-20T04:12:45;100374.78;;;5.65
34901;BMP280;21112;51.976;5.660;2023-12-20T04:15:12;100363.13;;;5.67
34901;BMP280;21112;51.976;5.660;2023-12-20T04:17:38;100363.06;;;5.79
34901;BMP280;21112;51.976;5.660;2023-12-20T04:20:09;100357.13;;;5.88
34901;BMP280;21112;51.976;5.660;2023-12-20T04:22:37;100350.44;;;5.94
34901;BMP280;21112;51.976;5.660;2023-12-20T04:25:04;100348.81;;;5.90
34901;BMP280;21112;51.976;5.660;2023-12-20T04:27:33;100360.47;;;5.88
34901;BMP280;21112;51.976;5.660;2023-12-20T04:30:00;100352.13;;;5.91
34901;BMP280;21112;51.976;5.660;2023-12-20T04:32:27;100355.41;;;5.96
34901;BMP280;21112;51.976;5.660;2023-12-20T04:34:53;100350.44;;;5.96
34901;BMP280;21112;51.976;5.660;2023-12-20T04:37:20;100356.22;;;5.98
34901;BMP280;21112;51.976;5.660;2023-12-20T04:39:48;100351.97;;;6.06
34901;BMP280;21112;51.976;5.660;2023-12-20T04:42:15;100359.41;;;6.10
34901;BMP280;21112;51.976;5.660;2023-12-20T04:44:42;100362.66;;;6.17
34901;BMP280;21112;51.976;5.660;2023-12-20T04:47:09;100359.31;;;6.19
34901;BMP280;21112;51.976;5.660;2023-12-20T04:49:35;100354.28;;;6.22
34901;BMP280;21112;51.976;5.660;2023-12-20T04:52:02;100360.06;;;6.26
34901;BMP280;21112;51.976;5.660;2023-12-20T04:54:29;100357.56;;;6.27
34901;BMP280;21112;51.976;5.660;2023-12-20T04:56:57;100357.56;;;6.27
34901;BMP280;21112;51.976;5.660;2023-12-20T04:59:24;100345.84;;;6.32
34901;BMP280;21112;51.976;5.660;2023-12-20T05:04:22;100342.47;;;6.38
34901;BMP280;21112;51.976;5.660;2023-12-20T05:06:49;100335.66;;;6.49
34901;BMP280;21112;51.976;5.660;2023-12-20T05:09:16;100329.00;;;6.51
34901;BMP280;21112;51.976;5.660;2023-12-20T05:11:43;100332.28;;;6.54
34901;BMP280;21112;51.976;5.660;2023-12-20T05:14:11;100331.44;;;6.57
34901;BMP280;21112;51.976;5.660;2023-12-20T05:16:37;100328.94;;;6.54
34901;BMP280;21112;51.976;5.660;2023-12-20T05:19:04;100324.81;;;6.53
34901;BMP280;21112;51.976;5.660;2023-12-20T05:21:32;100328.16;;;6.52
34901;BMP280;21112;51.976;5.660;2023-12-20T05:23:59;100330.66;;;6.49
34901;BMP280;21112;51.976;5.660;2023-12-20T05:26:26;100337.28;;;6.53
34901;BMP280;21112;51.976;5.660;2023-12-20T05:28:54;100339.69;;;6.60
34901;BMP280;21112;51.976;5.660;2023-12-20T05:31:22;100339.72;;;6.56
34901;BMP280;21112;51.976;5.660;2023-12-20T05:33:49;100331.47;;;6.52
34901;BMP280;21112;51.976;5.660;2023-12-20T05:36:16;100339.72;;;6.56
34901;BMP280;21112;51.976;5.660;2023-12-20T05:38:42;100338.88;;;6.60
34901;BMP280;21112;51.976;5.660;2023-12-20T05:41:09;100343.84;;;6.61
34901;BMP280;21112;51.976;5.660;2023-12-20T05:43:36;100346.28;;;6.66
34901;BMP280;21112;51.976;5.660;2023-12-20T05:46:03;100344.66;;;6.62
34901;BMP280;21112;51.976;5.660;2023-12-20T05:48:31;100354.63;;;6.62
34901;BMP280;21112;51.976;5.660;2023-12-20T05:50:58;100352.13;;;6.62
34901;BMP280;21112;51.976;5.660;2023-12-20T05:53:25;100348.78;;;6.63
34901;BMP280;21112;51.976;5.660;2023-12-20T05:55:52;100345.50;;;6.62
34901;BMP280;21112;51.976;5.660;2023-12-20T05:58:21;100347.06;;;6.69
34901;BMP280;21112;51.976;5.660;2023-12-20T06:00:50;100352.91;;;6.68
34901;BMP280;21112;51.976;5.660;2023-12-20T06:03:18;100359.53;;;6.69
34901;BMP280;21112;51.976;5.660;2023-12-20T06:05:46;100357.00;;;6.72
34901;BMP280;21112;51.976;5.660;2023-12-20T06:08:16;100355.38;;;6.70
34901;BMP280;21112;51.976;5.660;2023-12-20T06:10:44;100347.91;;;6.70
34901;BMP280;21112;51.976;5.660;2023-12-20T06:13:11;100347.00;;;6.74
34901;BMP280;21112;51.976;5.660;2023-12-20T06:15:38;100348.63;;;6.76
34901;BMP280;21112;51.976;5.660;2023-12-20T06:18:05;100349.50;;;6.74
34901;BMP280;21112;51.976;5.660;2023-12-20T06:20:32;100353.63;;;6.75
34901;BMP280;21112;51.976;5.660;2023-12-20T06:23:00;100344.50;;;6.74
34901;BMP280;21112;51.976;5.660;2023-12-20T06:25:29;100347.00;;;6.72
34901;BMP280;21112;51.976;5.660;2023-12-20T06:27:59;100348.69;;;6.72
34901;BMP280;21112;51.976;5.660;2023-12-20T06:30:26;100345.28;;;6.79
34901;BMP280;21112;51.976;5.660;2023-12-20T06:32:53;100351.97;;;6.75
34901;BMP280;21112;51.976;5.660;2023-12-20T06:35:22;100351.91;;;6.80
34901;BMP280;21112;51.976;5.660;2023-12-20T06:37:52;100349.44;;;6.78
34901;BMP280;21112;51.976;5.660;2023-12-20T06:40:20;100356.06;;;6.81
34901;BMP280;21112;51.976;5.660;2023-12-20T06:42:46;100349.38;;;6.83
34901;BMP280;21112;51.976;5.660;2023-12-20T06:45:13;100339.47;;;6.77
34901;BMP280;21112;51.976;5.660;2023-12-20T06:47:40;100344.38;;;6.83
34901;BMP280;21112;51.976;5.660;2023-12-20T06:50:07;100336.88;;;6.83
34901;BMP280;21112;51.976;5.660;2023-12-20T06:52:37;100338.56;;;6.81
34901;BMP280;21112;51.976;5.660;2023-12-20T06:55:04;100337.72;;;6.82
34901;BMP280;21112;51.976;5.660;2023-12-20T06:57:32;100341.06;;;6.82
34901;BMP280;21112;51.976;5.660;2023-12-20T07:00:00;100331.09;;;6.79
34901;BMP280;21112;51.976;5.660;2023-12-20T07:02:27;100335.28;;;6.79
34901;BMP280;21112;51.976;5.660;2023-12-20T07:04:55;100320.31;;;6.79
34901;BMP280;21112;51.976;5.660;2023-12-20T07:07:22;100326.94;;;6.80
34901;BMP280;21112;51.976;5.660;2023-12-20T07:09:49;100335.22;;;6.82
34901;BMP280;21112;51.976;5.660;2023-12-20T07:12:16;100325.22;;;6.85
34901;BMP280;21112;51.976;5.660;2023-12-20T07:14:46;100331.88;;;6.83
34901;BMP280;21112;51.976;5.660;2023-12-20T07:17:12;100331.94;;;6.80
34901;BMP280;21112;51.976;5.660;2023-12-20T07:19:40;100320.22;;;6.85
34901;BMP280;21112;51.976;5.660;2023-12-20T07:22:07;100321.91;;;6.83
34901;BMP280;21112;51.976;5.660;2023-12-20T07:24:34;100333.44;;;6.93
34901;BMP280;21112;51.976;5.660;2023-12-20T07:27:02;100331.75;;;6.93
34901;BMP280;21112;51.976;5.660;2023-12-20T07:29:28;100334.25;;;6.93
34901;BMP280;21112;51.976;5.660;2023-12-20T07:31:59;100333.38;;;6.96
34901;BMP280;21112;51.976;5.660;2023-12-20T07:34:25;100324.16;;;6.99
34901;BMP280;21112;51.976;5.660;2023-12-20T07:36:52;100311.75;;;6.95
34901;BMP280;21112;51.976;5.660;2023-12-20T07:39:18;100316.75;;;6.95
34901;BMP280;21112;51.976;5.660;2023-12-20T07:41:45;100313.44;;;6.94
34901;BMP280;21112;51.976;5.660;2023-12-20T07:44:12;100311.78;;;6.93
34901;BMP280;21112;51.976;5.660;2023-12-20T07:46:38;100309.25;;;6.95
34901;BMP280;21112;51.976;5.660;2023-12-20T07:49:07;100311.72;;;6.98
34901;BMP280;21112;51.976;5.660;2023-12-20T07:51:35;100317.44;;;7.04
34901;BMP280;21112;51.976;5.660;2023-12-20T07:54:02;100323.22;;;7.08
34901;BMP280;21112;51.976;5.660;2023-12-20T07:56:30;100325.78;;;7.03
34901;BMP280;21112;51.976;5.660;2023-12-20T07:58:56;100329.81;;;7.12
34901;BMP280;21112;51.976;5.660;2023-12-20T08:01:23;100334.81;;;7.12
34901;BMP280;21112;51.976;5.660;2023-12-20T08:03:50;100336.44;;;7.14
34901;BMP280;21112;51.976;5.660;2023-12-20T08:06:18;100346.41;;;7.16
34901;BMP280;21112;51.976;5.660;2023-12-20T08:08:45;100339.75;;;7.15
34901;BMP280;21112;51.976;5.660;2023-12-20T08:11:12;100343.06;;;7.17
34901;BMP280;21112;51.976;5.660;2023-12-20T08:13:38;100343.00;;;7.20
34901;BMP280;21112;51.976;5.660;2023-12-20T08:16:06;100346.38;;;7.19
34901;BMP280;21112;51.976;5.660;2023-12-20T08:18:32;100342.25;;;7.16
34901;BMP280;21112;51.976;5.660;2023-12-20T08:20:59;100338.09;;;7.14
34901;BMP280;21112;51.976;5.660;2023-12-20T08:23:28;100340.66;;;7.11
34901;BMP280;21112;51.976;5.660;2023-12-20T08:25:54;100339.81;;;7.10
34901;BMP280;21112;51.976;5.660;2023-12-20T08:28:21;100339.75;;;7.13
34901;BMP280;21112;51.976;5.660;2023-12-20T08:30:48;100326.47;;;7.13
34901;BMP280;21112;51.976;5.660;2023-12-20T08:33:18;100324.75;;;7.15
34901;BMP280;21112;51.976;5.660;2023-12-20T08:35:45;100333.88;;;7.20
34901;BMP280;21112;51.976;5.660;2023-12-20T08:38:12;100324.66;;;7.24
34901;BMP280;21112;51.976;5.660;2023-12-20T08:40:41;100328.78;;;7.25
34901;BMP280;21112;51.976;5.660;2023-12-20T08:43:08;100325.44;;;7.26
34901;BMP280;21112;51.976;5.660;2023-12-20T08:45:34;100324.66;;;7.24
34901;BMP280;21112;51.976;5.660;2023-12-20T08:48:01;100325.47;;;7.23
34901;BMP280;21112;51.976;5.660;2023-12-20T08:50:28;100337.00;;;7.30
34901;BMP280;21112;51.976;5.660;2023-12-20T08:52:55;100327.09;;;7.27
34901;BMP280;21112;51.976;5.660;2023-12-20T08:55:22;100327.94;;;7.24
34901;BMP280;21112;51.976;5.660;2023-12-20T08:57:50;100322.09;;;7.25
34901;BMP280;21112;51.976;5.660;2023-12-20T09:00:18;100317.94;;;7.26
34901;BMP280;21112;51.976;5.660;2023-12-20T09:02:46;100321.28;;;7.25
34901;BMP280;21112;51.976;5.660;2023-12-20T09:05:13;100317.19;;;7.21
34901;BMP280;21112;51.976;5.660;2023-12-20T09:07:40;100312.16;;;7.22
34901;BMP280;21112;51.976;5.660;2023-12-20T09:10:07;100313.91;;;7.17
34901;BMP280;21112;51.976;5.660;2023-12-20T09:12:34;100311.47;;;7.13
34901;BMP280;21112;51.976;5.660;2023-12-20T09:15:05;100319.75;;;7.15
34901;BMP280;21112;51.976;5.660;2023-12-20T09:17:35;100320.59;;;7.17
34901;BMP280;21112;51.976;5.660;2023-12-20T09:20:03;100331.41;;;7.16
34901;BMP280;21112;51.976;5.660;2023-12-20T09:22:32;100316.50;;;7.11
34901;BMP280;21112;51.976;5.660;2023-12-20T09:24:59;100322.34;;;7.10
34901;BMP280;21112;51.976;5.660;2023-12-20T09:27:25;100321.56;;;7.05
34901;BMP280;21112;51.976;5.660;2023-12-20T09:29:56;100319.06;;;7.05
34901;BMP280;21112;51.976;5.660;2023-12-20T09:32:25;100319.06;;;7.08
34901;BMP280;21112;51.976;5.660;2023-12-20T09:34:51;100318.13;;;7.14
34901;BMP280;21112;51.976;5.660;2023-12-20T09:37:18;100321.41;;;7.16
34901;BMP280;21112;51.976;5.660;2023-12-20T09:39:44;100324.66;;;7.24
34901;BMP280;21112;51.976;5.660;2023-12-20T09:42:12;100310.47;;;7.23
34901;BMP280;21112;51.976;5.660;2023-12-20T09:44:43;100303.72;;;7.29
34901;BMP280;21112;51.976;5.660;2023-12-20T09:47:10;100301.94;;;7.36
34901;BMP280;21112;51.976;5.660;2023-12-20T09:49:38;100311.91;;;7.37
34901;BMP280;21112;51.976;5.660;2023-12-20T09:52:06;100317.81;;;7.33
34901;BMP280;21112;51.976;5.660;2023-12-20T09:54:34;100321.13;;;7.34
34901;BMP280;21112;51.976;5.660;2023-12-20T09:57:01;100315.22;;;7.39
34901;BMP280;21112;51.976;5.660;2023-12-20T09:59:27;100315.16;;;7.44
34901;BMP280;21112;51.976;5.660;2023-12-20T10:01:57;100320.88;;;7.49
34901;BMP280;21112;51.976;5.660;2023-12-20T10:04:24;100311.72;;;7.49
34901;BMP280;21112;51.976;5.660;2023-12-20T10:06:52;100314.16;;;7.54
34901;BMP280;21112;51.976;5.660;2023-12-20T10:09:19;100313.19;;;7.61
34901;BMP280;21112;51.976;5.660;2023-12-20T10:11:46;100310.75;;;7.58
34901;BMP280;21112;51.976;5.660;2023-12-20T10:14:12;100322.41;;;7.59
34901;BMP280;21112;51.976;5.660;2023-12-20T10:16:40;100333.19;;;7.59
34901;BMP280;21112;51.976;5.660;2023-12-20T10:19:09;100341.53;;;7.61
34901;BMP280;21112;51.976;5.660;2023-12-20T10:21:37;100344.75;;;7.66
34901;BMP280;21112;51.976;5.660;2023-12-20T10:24:05;100347.25;;;7.66
34901;BMP280;21112;51.976;5.660;2023-12-20T10:26:32;100328.06;;;7.68
34901;BMP280;21112;51.976;5.660;2023-12-20T10:29:00;100334.66;;;7.72
34901;BMP280;21112;51.976;5.660;2023-12-20T10:31:30;100332.91;;;7.77
34901;BMP280;21112;51.976;5.660;2023-12-20T10:33:57;100323.75;;;7.78
34901;BMP280;21112;51.976;5.660;2023-12-20T10:36:25;100313.78;;;7.73
34901;BMP280;21112;51.976;5.660;2023-12-20T10:38:53;100314.63;;;7.74
34901;BMP280;21112;51.976;5.660;2023-12-20T10:41:25;100319.47;;;7.83
34901;BMP280;21112;51.976;5.660;2023-12-20T10:43:55;100316.03;;;7.88
34901;BMP280;21112;51.976;5.660;2023-12-20T10:46:26;100310.28;;;7.85
34901;BMP280;21112;51.976;5.660;2023-12-20T10:48:54;100309.38;;;7.87
34901;BMP280;21112;51.976;5.660;2023-12-20T10:51:21;100305.06;;;7.95
34901;BMP280;21112;51.976;5.660;2023-12-20T10:53:50;100308.34;;;7.99
34901;BMP280;21112;51.976;5.660;2023-12-20T10:56:18;100307.28;;;8.10
34901;BMP280;21112;51.976;5.660;2023-12-20T10:58:46;100302.09;;;8.18
34901;BMP280;21112;51.976;5.660;2023-12-20T11:01:13;100304.50;;;8.25
34901;BMP280;21112;51.976;5.660;2023-12-20T11:03:44;100297.75;;;8.29
34901;BMP280;21112;51.976;5.660;2023-12-20T11:06:25;100302.63;;;8.36
34901;BMP280;21112;51.976;5.660;2023-12-20T11:08:58;100303.25;;;8.46
34901;BMP280;21112;51.976;5.660;2023-12-20T11:11:38;100310.69;;;8.50
34901;BMP280;21112;51.976;5.660;2023-12-20T11:14:14;100303.84;;;8.57
34901;BMP280;21112;51.976;5.660;2023-12-20T11:16:42;100307.16;;;8.59
34901;BMP280;21112;51.976;5.660;2023-12-20T11:19:11;100300.47;;;8.58
34901;BMP280;21112;51.976;5.660;2023-12-20T11:21:39;100287.06;;;8.62
34901;BMP280;21112;51.976;5.660;2023-12-20T11:24:06;100301.97;;;8.66
34901;BMP280;21112;51.976;5.660;2023-12-20T11:26:33;100294.28;;;8.75
34901;BMP280;21112;51.976;5.660;2023-12-20T11:29:32;100295.09;;;8.76
34901;BMP280;21112;51.976;5.660;2023-12-20T11:32:00;100292.66;;;8.73
34901;BMP280;21112;51.976;5.660;2023-12-20T11:34:27;100306.09;;;8.69
34901;BMP280;21112;51.976;5.660;2023-12-20T11:36:58;100294.47;;;8.66
34901;BMP280;21112;51.976;5.660;2023-12-20T11:39:26;100294.44;;;8.68
34901;BMP280;21112;51.976;5.660;2023-12-20T11:41:54;100286.78;;;8.74
34901;BMP280;21112;51.976;5.660;2023-12-20T11:44:23;100289.94;;;8.82
34901;BMP280;21112;51.976;5.660;2023-12-20T11:46:52;100291.25;;;8.98
34901;BMP280;21112;51.976;5.660;2023-12-20T11:49:24;100285.28;;;9.03
34901;BMP280;21112;51.976;5.660;2023-12-20T11:51:51;100302.47;;;9.18
34901;BMP280;21112;51.976;5.660;2023-12-20T11:54:18;100307.97;;;9.32
34901;BMP280;21112;51.976;5.660;2023-12-20T11:56:45;100305.63;;;9.25
34901;BMP280;21112;51.976;5.660;2023-12-20T11:59:12;100301.69;;;9.16
34901;BMP280;21112;51.976;5.660;2023-12-20T12:01:39;100291.53;;;9.22
34901;BMP280;21112;51.976;5.660;2023-12-20T12:04:07;100287.41;;;9.20
34901;BMP280;21112;51.976;5.660;2023-12-20T12:06:34;100292.56;;;9.14
34901;BMP280;21112;51.976;5.660;2023-12-20T12:09:01;100283.19;;;9.20
34901;BMP280;21112;51.976;5.660;2023-12-20T12:11:29;100277.75;;;9.38
34901;BMP280;21112;51.976;5.660;2023-12-20T12:13:56;100286.75;;;9.45
34901;BMP280;21112;51.976;5.660;2023-12-20T12:16:23;100276.31;;;9.28
34901;BMP280;21112;51.976;5.660;2023-12-20T12:18:56;100276.53;;;9.19
34901;BMP280;21112;51.976;5.660;2023-12-20T12:21:24;100259.84;;;9.18
34901;BMP280;21112;51.976;5.660;2023-12-20T12:23:51;100268.28;;;9.14
34901;BMP280;21112;51.976;5.660;2023-12-20T12:26:24;100275.78;;;9.16
34901;BMP280;21112;51.976;5.660;2023-12-20T12:28:51;100271.03;;;9.05
34901;BMP280;21112;51.976;5.660;2023-12-20T12:31:18;100260.34;;;8.99
34901;BMP280;21112;51.976;5.660;2023-12-20T12:33:45;100260.50;;;8.91
34901;BMP280;21112;51.976;5.660;2023-12-20T12:36:12;100251.41;;;8.87
34901;BMP280;21112;51.976;5.660;2023-12-20T12:38:43;100251.50;;;8.84
34901;BMP280;21112;51.976;5.660;2023-12-20T12:41:10;100239.88;;;8.80
34901;BMP280;21112;51.976;5.660;2023-12-20T12:43:39;100226.59;;;8.77
34901;BMP280;21112;51.976;5.660;2023-12-20T12:46:05;100229.16;;;8.75
34901;BMP280;21112;51.976;5.660;2023-12-20T12:48:32;100230.91;;;8.72
34901;BMP280;21112;51.976;5.660;2023-12-20T12:50:59;100231.72;;;8.72
34901;BMP280;21112;51.976;5.660;2023-12-20T12:53:26;100224.06;;;8.78
34901;BMP280;21112;51.976;5.660;2023-12-20T12:55:54;100218.94;;;8.83
34901;BMP280;21112;51.976;5.660;2023-12-20T12:58:21;100210.44;;;8.90
34901;BMP280;21112;51.976;5.660;2023-12-20T13:00:50;100210.38;;;8.93
34901;BMP280;21112;51.976;5.660;2023-12-20T13:03:17;100217.81;;;8.96
34901;BMP280;21112;51.976;5.660;2023-12-20T13:05:43;100206.81;;;9.01
34901;BMP280;21112;51.976;5.660;2023-12-20T13:08:10;100200.91;;;9.04
34901;BMP280;21112;51.976;5.660;2023-12-20T13:10:38;100197.53;;;9.05
34901;BMP280;21112;51.976;5.660;2023-12-20T13:13:06;100195.88;;;9.04
34901;BMP280;21112;51.976;5.660;2023-12-20T13:15:32;100193.44;;;9.02
34901;BMP280;21112;51.976;5.660;2023-12-20T13:17:59;100184.25;;;9.01
34901;BMP280;21112;51.976;5.660;2023-12-20T13:20:26;100178.56;;;8.96
34901;BMP280;21112;51.976;5.660;2023-12-20T13:22:53;100166.06;;;8.95
34901;BMP280;21112;51.976;5.660;2023-12-20T13:25:20;100170.22;;;8.94
34901;BMP280;21112;51.976;5.660;2023-12-20T13:27:46;100169.44;;;8.94
34901;BMP280;21112;51.976;5.660;2023-12-20T13:30:16;100166.94;;;8.92
34901;BMP280;21112;51.976;5.660;2023-12-20T13:32:44;100167.03;;;8.89
34901;BMP280;21112;51.976;5.660;2023-12-20T13:35:16;100169.56;;;8.88
34901;BMP280;21112;51.976;5.660;2023-12-20T13:37:43;100160.31;;;8.90
34901;BMP280;21112;51.976;5.660;2023-12-20T13:40:10;100169.47;;;8.91
34901;BMP280;21112;51.976;5.660;2023-12-20T13:42:37;100161.09;;;8.92
34901;BMP280;21112;51.976;5.660;2023-12-20T13:45:07;100158.56;;;8.93
34901;BMP280;21112;51.976;5.660;2023-12-20T13:47:36;100152.78;;;8.91
34901;BMP280;21112;51.976;5.660;2023-12-20T13:50:05;100149.38;;;8.94
34901;BMP280;21112;51.976;5.660;2023-12-20T13:52:36;100146.06;;;8.92
34901;BMP280;21112;51.976;5.660;2023-12-20T13:55:06;100152.69;;;8.94
34901;BMP280;21112;51.976;5.660;2023-12-20T13:57:36;100159.44;;;8.92
34901;BMP280;21112;51.976;5.660;2023-12-20T14:00:13;100158.44;;;8.98
34901;BMP280;21112;51.976;5.660;2023-12-20T14:02:43;100153.34;;;9.02
34901;BMP280;21112;51.976;5.660;2023-12-20T14:05:14;100154.19;;;9.01
34901;BMP280;21112;51.976;5.660;2023-12-20T14:07:43;100158.44;;;8.98
34901;BMP280;21112;51.976;5.660;2023-12-20T14:10:11;100168.44;;;8.99
34901;BMP280;21112;51.976;5.660;2023-12-20T14:12:38;100160.94;;;8.98
34901;BMP280;21112;51.976;5.660;2023-12-20T14:15:06;100155.13;;;8.97